Time;durP1;ratioP1;P1;durP2;ratioP2;P2;SDS_P1;SDS_P2;PMS_P1;PMS_P2;Temp;Humidity;BMP_temperature;BMP_pressure;BME280_temperature;BME280_humidity;BME280_pressure;Samples;Min_cycle;Max_cycle;Signal;HPM_P1;HPM_P2
2022/07/13 00:00:00;;;;;;;4.85;3.40;;;20.30;99.90;;;;;;9185862;19;20025;-71
2022/07/13 00:03:04;;;;;;;4.43;3.72;;;20.20;99.90;;;;;;9178726;19;20026;-70
2022/07/13 00:06:10;;;;;;;3.95;3.10;;;20.20;99.90;;;;;;9181929;19;20056;-70
2022/07/13 00:09:14;;;;;;;3.80;3.40;;;20.20;99.90;;;;;;9178431;19;20078;-70
2022/07/13 00:12:18;;;;;;;6.13;3.40;;;20.20;99.90;;;;;;9185865;19;20044;-71
2022/07/13 00:15:22;;;;;;;3.97;3.30;;;20.20;99.90;;;;;;9188734;19;20021;-70
2022/07/13 00:18:26;;;;;;;4.05;3.20;;;20.10;99.90;;;;;;9190386;19;20020;-71
2022/07/13 00:21:32;;;;;;;3.78;2.75;;;20.20;99.90;;;;;;9182997;19;20022;-71
2022/07/13 00:24:36;;;;;;;4.35;3.00;;;20.10;99.90;;;;;;9187269;19;20007;-71
2022/07/13 00:27:40;;;;;;;3.40;2.90;;;20.10;99.90;;;;;;9184287;19;20014;-71
2022/07/13 00:30:45;;;;;;;4.20;3.60;;;20.10;99.90;;;;;;9186810;19;20475;-70
2022/07/13 00:33:49;;;;;;;3.65;3.08;;;20.00;99.90;;;;;;9188204;19;20029;-70
2022/07/13 00:36:55;;;;;;;4.60;3.72;;;20.10;99.90;;;;;;9184234;19;20046;-71
2022/07/13 00:39:59;;;;;;;;;;;19.90;99.90;;;;;;9184411;19;20006;-70
2022/07/13 00:43:03;;;;;;;4.40;3.33;;;20.00;99.90;;;;;;9183089;19;19922;-71
2022/07/13 00:46:07;;;;;;;6.82;4.10;;;20.00;99.90;;;;;;9182164;19;20018;-70
2022/07/13 00:49:13;;;;;;;11.30;3.90;;;19.90;99.90;;;;;;9185019;19;20011;-70
2022/07/13 00:52:19;;;;;;;6.93;4.13;;;19.90;99.90;;;;;;9182416;19;20010;-70
2022/07/13 00:55:24;;;;;;;5.90;3.83;;;19.90;99.90;;;;;;9182915;19;20035;-70
2022/07/13 00:58:29;;;;;;;4.65;4.03;;;19.80;99.90;;;;;;9188256;19;20022;-70
2022/07/13 01:01:33;;;;;;;4.35;3.95;;;19.90;99.90;;;;;;9185556;19;20353;-71
2022/07/13 01:04:37;;;;;;;5.10;4.53;;;19.80;99.90;;;;;;9185406;19;20018;-70
2022/07/13 01:07:44;;;;;;;7.28;4.70;;;19.70;99.90;;;;;;9183542;19;20018;-70
2022/07/13 01:10:49;;;;;;;6.18;4.55;;;19.80;99.90;;;;;;9177986;19;20074;-70
2022/07/13 01:13:54;;;;;;;7.97;5.20;;;19.70;99.90;;;;;;9182448;19;20006;-70
2022/07/13 01:16:58;;;;;;;5.97;5.22;;;19.70;99.90;;;;;;9182930;19;20047;-71
2022/07/13 01:20:02;;;;;;;9.93;5.30;;;19.80;99.90;;;;;;9182335;19;20018;-71
2022/07/13 01:23:12;;;;;;;8.00;5.32;;;19.80;99.90;;;;;;9187839;19;20024;-70
2022/07/13 01:26:16;;;;;;;9.93;5.60;;;19.60;99.90;;;;;;9184062;19;20010;-70
2022/07/13 01:29:20;;;;;;;8.18;5.75;;;19.40;99.90;;;;;;9181761;19;20016;-71
2022/07/13 01:32:25;;;;;;;6.95;5.68;;;19.50;99.90;;;;;;9181664;19;20017;-70
2022/07/13 01:35:29;;;;;;;10.85;6.00;;;19.60;99.90;;;;;;9179764;19;20485;-70
2022/07/13 01:38:36;;;;;;;8.23;5.95;;;19.50;99.90;;;;;;9186419;19;20077;-71
2022/07/13 01:41:40;;;;;;;8.60;6.15;;;19.60;99.90;;;;;;9181281;19;20012;-71
2022/07/13 01:44:48;;;;;;;7.80;5.82;;;19.60;99.90;;;;;;9181878;19;20017;-70
2022/07/13 01:47:53;;;;;;;9.48;6.30;;;19.60;99.90;;;;;;9184450;19;20048;-70
2022/07/13 01:50:57;;;;;;;8.05;5.30;;;19.50;99.90;;;;;;9180720;19;20018;-70
2022/07/13 01:54:04;;;;;;;6.15;5.35;;;19.50;99.90;;;;;;9179132;19;20348;-70
2022/07/13 01:57:07;;;;;;;10.23;5.65;;;19.50;99.90;;;;;;9181498;19;20353;-71
2022/07/13 02:00:14;;;;;;;7.97;5.93;;;19.60;99.90;;;;;;9180154;19;20014;-70
2022/07/13 02:03:19;;;;;;;8.48;6.30;;;19.40;99.90;;;;;;9180876;19;20498;-70
2022/07/13 02:06:23;;;;;;;9.27;6.70;;;19.50;99.90;;;;;;9180576;19;20078;-70
2022/07/13 02:09:29;;;;;;;10.98;6.95;;;19.50;99.90;;;;;;9180602;19;20022;-70
2022/07/13 02:12:33;;;;;;;7.93;7.10;;;19.40;99.90;;;;;;9180981;19;20535;-70
2022/07/13 02:15:39;;;;;;;10.30;6.78;;;19.40;99.90;;;;;;9179866;19;20010;-70
2022/07/13 02:18:43;;;;;;;9.07;6.60;;;19.40;99.90;;;;;;9183170;19;20015;-71
2022/07/13 02:21:48;;;;;;;11.73;7.00;;;19.40;99.90;;;;;;9179879;19;20082;-70
2022/07/13 02:24:54;;;;;;;9.60;6.78;;;19.40;99.90;;;;;;9179497;19;20029;-71
2022/07/13 02:27:58;;;;;;;7.82;6.78;;;19.40;99.90;;;;;;9181569;19;20034;-71
2022/07/13 02:31:02;;;;;;;8.38;7.47;;;19.30;99.90;;;;;;9185109;19;20094;-71
2022/07/13 02:34:07;;;;;;;8.18;6.78;;;19.50;99.90;;;;;;9180206;19;20018;-71
2022/07/13 02:37:11;;;;;;;13.18;7.28;;;19.40;99.90;;;;;;9179603;19;20387;-71
2022/07/13 02:40:18;;;;;;;10.82;7.13;;;19.40;99.90;;;;;;9178609;19;20018;-71
2022/07/13 02:43:22;;;;;;;8.15;6.43;;;19.40;99.90;;;;;;9179409;19;20078;-71
2022/07/13 02:46:25;;;;;;;11.55;6.55;;;19.40;99.90;;;;;;9179534;19;20025;-71
2022/07/13 02:49:29;;;;;;;10.27;7.07;;;19.50;99.90;;;;;;9177867;19;20078;-71
2022/07/13 02:52:33;;;;;;;10.95;7.40;;;19.30;99.90;;;;;;9177887;19;20039;-71
2022/07/13 02:55:40;;;;;;;9.52;7.55;;;19.30;99.90;;;;;;9177974;19;20070;-71
2022/07/13 02:58:44;;;;;;;10.98;8.25;;;19.40;99.90;;;;;;9175229;19;20495;-70
2022/07/13 03:01:48;;;;;;;10.63;7.90;;;19.40;99.90;;;;;;9182880;19;20360;-70
2022/07/13 03:04:52;;;;;;;10.68;7.68;;;19.30;99.90;;;;;;9182922;19;20502;-70
2022/07/13 03:07:56;;;;;;;11.10;8.40;;;19.30;99.90;;;;;;9181801;19;20019;-70
2022/07/13 03:11:03;;;;;;;12.93;8.40;;;19.30;99.90;;;;;;9175101;19;20496;-70
2022/07/13 03:14:07;;;;;;;13.73;8.57;;;19.40;99.90;;;;;;9178168;19;20011;-70
2022/07/13 03:17:10;;;;;;;9.43;7.95;;;19.20;99.90;;;;;;9178784;19;20082;-70
2022/07/13 03:20:14;;;;;;;11.25;9.02;;;19.20;99.90;;;;;;9179942;19;20010;-70
2022/07/13 03:23:18;;;;;;;9.68;8.38;;;19.20;99.90;;;;;;9178242;19;20015;-71
2022/07/13 03:26:25;;;;;;;10.43;8.90;;;19.30;99.90;;;;;;9178561;19;20019;-70
2022/07/13 03:29:29;;;;;;;10.45;8.02;;;19.20;99.90;;;;;;9177184;19;20011;-71
2022/07/13 03:32:33;;;;;;;11.77;8.23;;;19.30;99.90;;;;;;9185121;19;20011;-70
2022/07/13 03:35:38;;;;;;;10.98;8.57;;;18.50;99.90;;;;;;9189021;19;20018;-70
2022/07/13 03:38:42;;;;;;;12.18;7.60;;;19.00;99.90;;;;;;9188081;19;20101;-70
2022/07/13 03:41:48;;;;;;;11.38;8.40;;;19.30;99.90;;;;;;9186438;19;20011;-70
2022/07/13 03:44:54;;;;;;;12.80;8.45;;;19.00;99.90;;;;;;9186002;19;20030;-70
2022/07/13 03:47:57;;;;;;;11.60;9.23;;;19.10;99.90;;;;;;9188523;19;20011;-70
2022/07/13 03:51:01;;;;;;;11.88;8.80;;;19.10;99.90;;;;;;9191196;19;20090;-70
2022/07/13 03:54:06;;;;;;;11.65;8.48;;;19.00;99.90;;;;;;9184261;19;20423;-70
2022/07/13 03:57:12;;;;;;;11.65;9.25;;;19.10;99.90;;;;;;9187144;19;20015;-70
2022/07/13 04:00:17;;;;;;;13.77;9.18;;;19.10;99.90;;;;;;9185635;19;20015;-70
2022/07/13 04:03:21;;;;;;;11.13;9.18;;;19.10;99.90;;;;;;9187195;19;20042;-70
2022/07/13 04:06:25;;;;;;;11.98;8.63;;;19.00;99.90;;;;;;9183371;19;20014;-70
2022/07/13 04:09:29;;;;;;;11.73;8.80;;;19.10;99.90;;;;;;9184772;19;20018;-70
2022/07/13 04:12:36;;;;;;;12.10;8.30;;;19.20;99.90;;;;;;9185812;19;20010;-70
2022/07/13 04:15:39;;;;;;;13.05;9.07;;;19.00;99.90;;;;;;9185077;19;20011;-70
2022/07/13 04:18:43;;;;;;;11.27;9.15;;;19.30;99.90;;;;;;9181813;19;20018;-70
2022/07/13 04:21:51;;;;;;;;;;;19.00;99.90;;;;;;9187121;19;20364;-70
2022/07/13 04:24:55;;;;;;;12.18;9.23;;;19.20;99.90;;;;;;9183354;19;19923;-70
2022/07/13 04:28:01;;;;;;;10.30;8.52;;;19.10;99.90;;;;;;9184842;19;20482;-70
2022/07/13 04:31:05;;;;;;;12.93;8.93;;;19.10;99.90;;;;;;9187856;19;20002;-70
2022/07/13 04:34:09;;;;;;;11.80;8.82;;;19.20;99.90;;;;;;9186496;19;20095;-69
2022/07/13 04:37:14;;;;;;;10.88;9.07;;;19.20;99.90;;;;;;9186663;19;20044;-70
2022/07/13 04:40:18;;;;;;;14.13;9.23;;;19.10;99.90;;;;;;9190570;19;20018;-70
2022/07/13 04:43:24;;;;;;;11.05;8.95;;;19.20;99.90;;;;;;9184718;19;20022;-71
2022/07/13 04:46:28;;;;;;;13.80;8.60;;;19.20;99.90;;;;;;9188217;19;20074;-70
2022/07/13 04:49:32;;;;;;;11.10;8.73;;;19.10;99.90;;;;;;9184517;19;20018;-70
2022/07/13 04:52:36;;;;;;;11.00;8.77;;;19.20;99.90;;;;;;9184964;19;20014;-71
2022/07/13 04:55:41;;;;;;;12.45;9.18;;;19.00;99.90;;;;;;9182691;19;20021;-71
2022/07/13 04:58:47;;;;;;;10.38;8.32;;;19.10;99.90;;;;;;9180404;19;20022;-71
2022/07/13 05:01:51;;;;;;;12.77;8.48;;;19.10;99.90;;;;;;9184434;19;20023;-71
2022/07/13 05:04:55;;;;;;;11.35;8.45;;;19.10;99.90;;;;;;9187849;19;20018;-70
2022/07/13 05:07:59;;;;;;;10.85;8.25;;;19.10;99.90;;;;;;9182098;19;20105;-70
2022/07/13 05:11:05;;;;;;;10.65;8.25;;;19.10;99.90;;;;;;9179920;19;20043;-71
2022/07/13 05:14:12;;;;;;;10.75;7.78;;;19.20;99.90;;;;;;9179619;19;20021;-71
2022/07/13 05:17:16;;;;;;;11.68;8.20;;;19.10;99.90;;;;;;9175083;19;20038;-71
2022/07/13 05:20:20;;;;;;;9.82;8.40;;;19.30;99.90;;;;;;9180002;19;20022;-71
2022/07/13 05:23:24;;;;;;;10.27;7.70;;;19.30;99.90;;;;;;9182245;19;20548;-71
2022/07/13 05:26:28;;;;;;;9.77;8.02;;;19.30;99.90;;;;;;9187045;19;20011;-71
2022/07/13 05:29:34;;;;;;;10.00;7.70;;;19.20;99.90;;;;;;9183517;19;20018;-71
2022/07/13 05:32:38;;;;;;;9.85;7.38;;;19.30;99.90;;;;;;9182178;19;20019;-71
2022/07/13 05:35:42;;;;;;;9.60;7.50;;;19.30;99.90;;;;;;9184413;19;20022;-71
2022/07/13 05:38:47;;;;;;;10.02;7.00;;;19.40;99.90;;;;;;9181063;19;20044;-71
2022/07/13 05:41:51;;;;;;;10.75;6.20;;;19.40;99.90;;;;;;9182727;19;20490;-71
2022/07/13 05:44:57;;;;;;;9.60;7.18;;;19.30;99.90;;;;;;9181742;19;20068;-72
2022/07/13 05:48:01;;;;;;;7.50;6.70;;;19.30;99.90;;;;;;9179529;19;20049;-71
2022/07/13 05:51:05;;;;;;;9.13;7.13;;;19.50;99.90;;;;;;9181323;19;20015;-72
2022/07/13 05:54:09;;;;;;;8.43;6.57;;;19.60;99.90;;;;;;9178376;19;20084;-70
2022/07/13 05:57:13;;;;;;;7.75;6.28;;;19.40;99.90;;;;;;9182753;19;20521;-70
2022/07/13 06:00:20;;;;;;;10.25;6.78;;;19.60;99.90;;;;;;9177498;19;20491;-70
2022/07/13 06:03:24;;;;;;;8.85;6.75;;;19.30;99.90;;;;;;9180674;19;20041;-70
2022/07/13 06:06:28;;;;;;;8.18;6.80;;;19.40;99.90;;;;;;9183531;19;20034;-69
2022/07/13 06:09:32;;;;;;;7.90;6.97;;;19.40;99.90;;;;;;9179977;19;20018;-67
2022/07/13 06:12:36;;;;;;;10.40;6.82;;;19.50;99.90;;;;;;9178585;19;20110;-66
2022/07/13 06:15:42;;;;;;;10.25;6.97;;;19.60;99.90;;;;;;9177423;19;20011;-69
2022/07/13 06:18:46;;;;;;;8.07;6.50;;;19.50;99.90;;;;;;9176389;19;20040;-69
2022/07/13 06:21:50;;;;;;;9.02;7.05;;;19.50;99.90;;;;;;9180068;19;20019;-69
2022/07/13 06:24:54;;;;;;;10.02;7.30;;;19.60;99.90;;;;;;9179190;19;20069;-69
2022/07/13 06:27:58;;;;;;;9.02;7.13;;;19.60;99.90;;;;;;9182706;19;20018;-69
2022/07/13 06:31:05;;;;;;;9.93;7.47;;;19.70;99.90;;;;;;9178569;19;20014;-69
2022/07/13 06:34:09;;;;;;;9.07;7.25;;;19.60;99.90;;;;;;9182226;19;20014;-69
2022/07/13 06:37:13;;;;;;;9.90;7.68;;;19.70;99.90;;;;;;9180459;19;20048;-69
2022/07/13 06:40:18;;;;;;;11.57;7.70;;;19.70;99.90;;;;;;9183435;19;20011;-69
2022/07/13 06:43:22;;;;;;;12.45;7.30;;;19.60;99.90;;;;;;9178841;19;20079;-69
2022/07/13 06:46:28;;;;;;;8.65;6.78;;;19.70;99.90;;;;;;9178898;19;20078;-69
2022/07/13 06:49:32;;;;;;;9.95;6.72;;;19.70;99.90;;;;;;9180640;19;20014;-69
2022/07/13 06:52:37;;;;;;;8.73;6.57;;;19.80;99.90;;;;;;9177140;19;20014;-69
2022/07/13 06:55:41;;;;;;;11.13;7.00;;;19.80;99.90;;;;;;9178291;19;20356;-69
2022/07/13 06:58:45;;;;;;;10.32;6.60;;;19.70;99.90;;;;;;9176140;19;20078;-69
2022/07/13 07:01:52;;;;;;;8.43;6.10;;;19.90;99.90;;;;;;9179106;19;20021;-69
2022/07/13 07:04:56;;;;;;;7.93;6.40;;;19.80;99.90;;;;;;9182365;19;20007;-69
2022/07/13 07:08:02;;;;;;;7.95;6.43;;;19.90;99.90;;;;;;9178762;19;20024;-71
2022/07/13 07:11:06;;;;;;;10.50;6.27;;;19.90;99.90;;;;;;9177444;19;20046;-69
2022/07/13 07:14:10;;;;;;;8.18;6.18;;;20.00;99.90;;;;;;9179606;19;20032;-70
2022/07/13 07:17:17;;;;;;;8.45;6.65;;;19.80;99.90;;;;;;9181629;19;20385;-69
2022/07/13 07:20:21;;;;;;;9.52;6.50;;;20.00;99.90;;;;;;9176829;19;20034;-69
2022/07/13 07:23:25;;;;;;;9.43;7.30;;;19.90;99.90;;;;;;9177062;19;20014;-69
2022/07/13 07:26:30;;;;;;;10.57;7.55;;;20.10;99.90;;;;;;9177661;19;20021;-69
2022/07/13 07:29:34;;;;;;;10.30;7.40;;;20.00;99.90;;;;;;9179462;19;20014;-70
2022/07/13 07:32:41;;;;;;;13.23;8.80;;;20.10;99.90;;;;;;9176937;19;20007;-69
2022/07/13 07:35:45;;;;;;;13.85;8.23;;;20.20;99.90;;;;;;9180021;19;20010;-69
2022/07/13 07:38:49;;;;;;;9.70;7.90;;;20.30;99.90;;;;;;9180038;19;20014;-69
2022/07/13 07:41:54;;;;;;;12.88;8.38;;;20.20;99.90;;;;;;9176416;19;20034;-69
2022/07/13 07:44:58;;;;;;;16.40;8.48;;;20.40;99.90;;;;;;9179540;19;20515;-69
2022/07/13 07:48:05;;;;;;;12.27;8.73;;;20.40;99.90;;;;;;9176083;19;20040;-69
2022/07/13 07:51:09;;;;;;;13.88;9.10;;;20.30;99.90;;;;;;9176730;19;20007;-70
2022/07/13 07:54:13;;;;;;;12.45;7.90;;;20.30;99.90;;;;;;9173576;19;20103;-69
2022/07/13 07:57:17;;;;;;;14.93;8.43;;;20.30;99.90;;;;;;9174835;19;20010;-69
2022/07/13 08:00:21;;;;;;;15.38;8.80;;;20.30;99.90;;;;;;9179751;19;20015;-69
2022/07/13 08:03:30;;;;;;;13.60;8.10;;;20.40;99.90;;;;;;9178737;19;20032;-70
2022/07/13 08:06:34;;;;;;;12.10;7.70;;;20.40;99.90;;;;;;9175774;19;20018;-70
2022/07/13 08:09:38;;;;;;;14.52;8.75;;;20.50;99.90;;;;;;9178861;19;20014;-70
2022/07/13 08:12:42;;;;;;;15.10;8.20;;;20.60;99.90;;;;;;9175291;19;20052;-70
2022/07/13 08:15:47;;;;;;;14.02;9.40;;;20.50;99.90;;;;;;9178703;19;20010;-70
2022/07/13 08:18:53;;;;;;;12.07;9.02;;;20.60;99.90;;;;;;9180061;19;20498;-74
2022/07/13 08:21:57;;;;;;;13.23;8.20;;;20.80;99.90;;;;;;9184795;19;20052;-74
2022/07/13 08:25:01;;;;;;;13.23;9.43;;;20.70;99.90;;;;;;9184553;19;20018;-76
2022/07/13 08:28:05;;;;;;;11.82;9.15;;;20.70;99.90;;;;;;9189606;19;20034;-74
2022/07/13 08:31:09;;;;;;;16.83;9.95;;;20.70;99.90;;;;;;9185537;19;20042;-74
2022/07/13 08:40:49;;;;;;;14.00;9.40;;;20.80;99.90;;;;;;9183675;19;20042;-75
2022/07/13 08:43:54;;;;;;;16.02;9.90;;;20.80;99.90;;;;;;9185814;19;20092;-75
2022/07/13 08:46:59;;;;;;;14.55;9.07;;;20.90;99.90;;;;;;9183797;19;20072;-75
2022/07/13 08:50:09;;;;;;;11.98;9.15;;;20.90;99.90;;;;;;9182253;19;20044;-73
2022/07/13 08:53:14;;;;;;;13.38;7.93;;;21.00;99.90;;;;;;9181653;19;20010;-75
2022/07/13 08:56:18;;;;;;;11.93;8.55;;;21.00;99.90;;;;;;9182543;19;20011;-71
2022/07/13 08:59:22;;;;;;;8.68;7.00;;;21.10;99.90;;;;;;9183875;19;20085;-71
2022/07/13 09:02:26;;;;;;;14.45;8.45;;;21.20;99.90;;;;;;9182423;19;20005;-70
2022/07/13 09:05:36;;;;;;;14.32;8.55;;;21.30;99.90;;;;;;9182408;19;20013;-70
2022/07/13 09:08:46;;;;;;;10.40;7.93;;;21.20;99.90;;;;;;9186879;19;20591;-71
2022/07/13 09:11:50;;;;;;;12.35;7.75;;;21.20;99.90;;;;;;9181504;19;20018;-70
2022/07/13 09:14:56;;;;;;;11.50;8.00;;;21.30;99.90;;;;;;9183863;19;20014;-71
2022/07/13 09:18:00;;;;;;;11.23;7.75;;;21.50;99.90;;;;;;9184925;19;20521;-70
2022/07/13 09:21:06;;;;;;;10.18;7.18;;;21.30;99.90;;;;;;9181463;19;20015;-70
2022/07/13 09:24:10;;;;;;;14.40;7.88;;;21.60;99.90;;;;;;9182737;19;20038;-70
2022/07/13 09:27:15;;;;;;;13.48;8.02;;;21.70;99.90;;;;;;9183932;19;20022;-70
2022/07/13 09:30:29;;;;;;;9.30;6.38;;;21.70;99.90;;;;;;9173166;19;20036;-71
2022/07/13 09:33:38;;;;;;;14.07;6.82;;;21.60;99.90;;;;;;9173818;19;20033;-71
2022/07/13 09:36:45;;;;;;;11.13;6.13;;;21.60;99.90;;;;;;9185198;19;20365;-70
2022/07/13 09:40:05;;;;;;;10.77;6.55;;;21.80;99.90;;;;;;9178239;19;20102;-71
2022/07/13 09:46:26;;;;;;;9.15;4.90;;;22.10;99.90;;;;;;9183153;19;20381;-70
2022/07/13 09:49:33;;;;;;;8.85;5.32;;;22.20;99.90;;;;;;9179640;19;20045;-71
2022/07/13 09:52:40;;;;;;;7.63;4.40;;;22.30;99.90;;;;;;9182280;19;20103;-71
2022/07/13 09:55:47;;;;;;;6.07;4.10;;;22.30;99.90;;;;;;9180541;19;20491;-71
2022/07/13 09:58:52;;;;;;;7.95;4.60;;;22.50;99.90;;;;;;9179225;19;20782;-71
2022/07/13 10:01:57;;;;;;;8.40;4.88;;;22.50;99.90;;;;;;9184062;19;20029;-71
2022/07/13 10:05:02;;;;;;;8.20;4.30;;;22.60;99.90;;;;;;9178698;19;20437;-71
2022/07/13 10:08:15;;;;;;;7.78;4.13;;;22.70;99.90;;;;;;9180876;19;20014;-71
2022/07/13 10:11:20;;;;;;;6.30;4.00;;;22.70;99.90;;;;;;9182698;19;20044;-71
2022/07/13 10:14:24;;;;;;;8.52;4.80;;;22.90;99.90;;;;;;9182034;19;20014;-70
2022/07/13 10:17:28;;;;;;;5.03;3.60;;;22.80;99.90;;;;;;9174925;19;20078;-70
2022/07/13 10:20:32;;;;;;;8.23;4.03;;;22.90;99.90;;;;;;9179903;19;20018;-69
2022/07/13 10:23:41;;;;;;;6.10;3.45;;;23.00;99.90;;;;;;9179950;19;20107;-69
2022/07/13 10:26:45;;;;;;;6.90;3.30;;;23.00;99.90;;;;;;9179871;19;20083;-70
2022/07/13 10:29:53;;;;;;;5.75;3.33;;;23.20;99.90;;;;;;9182621;19;20022;-69
2022/07/13 10:33:20;;;;;;;6.15;3.35;;;23.30;99.90;;;;;;9178004;19;20487;-70
2022/07/13 10:36:59;;;;;;;5.03;3.38;;;23.30;99.90;;;;;;9180902;19;20029;-70
2022/07/13 10:40:16;;;;;;;4.75;3.10;;;23.40;98.70;;;;;;9175117;19;20006;-71
2022/07/13 10:43:20;;;;;;;4.00;3.08;;;23.40;99.90;;;;;;9181111;19;20014;-70
2022/07/13 10:46:51;;;;;;;3.58;2.90;;;23.60;99.60;;;;;;9181250;19;20048;-69
2022/07/13 10:49:56;;;;;;;6.10;3.05;;;23.60;99.00;;;;;;9172861;19;20022;-70
2022/07/13 10:53:00;;;;;;;3.53;2.60;;;23.70;99.10;;;;;;9178927;19;20015;-70
2022/07/13 10:56:17;;;;;;;4.13;2.70;;;23.80;99.10;;;;;;9176367;19;20076;-70
2022/07/13 10:59:49;;;;;;;3.92;2.50;;;23.70;97.80;;;;;;9175877;19;20360;-70
2022/07/13 11:02:55;;;;;;;6.10;3.90;;;23.70;96.80;;;;;;9176967;19;20024;-71
2022/07/13 11:06:11;;;;;;;6.07;2.90;;;23.90;99.60;;;;;;9175352;19;20065;-71
2022/07/13 11:09:21;;;;;;;6.28;4.10;;;24.00;97.60;;;;;;9180370;19;20059;-70
2022/07/13 11:12:27;;;;;;;3.78;2.20;;;24.00;97.90;;;;;;9175688;19;20010;-70
2022/07/13 11:15:45;;;;;;;5.70;1.98;;;24.10;96.50;;;;;;9174899;19;20018;-69
2022/07/13 11:18:55;;;;;;;5.05;1.98;;;24.20;94.30;;;;;;9180029;19;20484;-73
2022/07/13 11:22:12;;;;;;;3.40;2.20;;;24.10;94.70;;;;;;9180196;19;20427;-73
2022/07/13 11:25:28;;;;;;;2.72;1.90;;;24.30;93.90;;;;;;9178338;19;20034;-73
2022/07/13 11:28:44;;;;;;;3.70;2.30;;;24.20;93.70;;;;;;9179377;19;20017;-73
2022/07/13 11:31:48;;;;;;;2.90;1.90;;;24.00;92.90;;;;;;9180715;19;20412;-72
2022/07/13 11:34:52;;;;;;;3.95;2.00;;;24.10;93.00;;;;;;9178580;19;20039;-72
2022/07/13 11:37:56;;;;;;;3.33;2.38;;;24.30;93.20;;;;;;9179190;19;20018;-72
2022/07/13 11:41:00;;;;;;;3.88;2.20;;;24.40;92.40;;;;;;9175829;19;20039;-73
2022/07/13 11:44:07;;;;;;;3.78;2.33;;;24.30;92.70;;;;;;9179637;19;20443;-73
2022/07/13 11:47:13;;;;;;;5.05;3.10;;;24.40;92.60;;;;;;9176608;19;20015;-72
2022/07/13 11:50:18;;;;;;;2.72;2.22;;;24.60;93.70;;;;;;9180575;19;20036;-73
2022/07/13 11:53:27;;;;;;;4.10;2.30;;;24.50;93.10;;;;;;9183103;19;20006;-73
2022/07/13 11:56:31;;;;;;;5.65;2.40;;;24.60;92.60;;;;;;9187821;19;20423;-72
2022/07/13 11:59:43;;;;;;;2.83;2.20;;;24.50;91.90;;;;;;9189606;19;20022;-72
2022/07/13 12:02:53;;;;;;;5.88;2.90;;;24.60;91.70;;;;;;9190342;19;20014;-73
2022/07/13 12:06:01;;;;;;;5.13;2.80;;;24.30;92.70;;;;;;9185129;19;20092;-73
2022/07/13 12:09:06;;;;;;;4.05;2.72;;;24.40;93.30;;;;;;9185219;19;20523;-73
2022/07/13 12:12:10;;;;;;;6.15;3.33;;;24.80;95.70;;;;;;9187841;19;20007;-72
2022/07/13 12:15:17;;;;;;;9.32;3.17;;;25.00;95.80;;;;;;9184165;19;20018;-72
2022/07/13 12:18:21;;;;;;;3.83;2.28;;;25.10;95.60;;;;;;9184162;19;20357;-72
2022/07/13 12:21:25;;;;;;;5.85;2.88;;;25.30;94.40;;;;;;9184956;19;20018;-73
2022/07/13 12:24:30;;;;;;;4.63;2.97;;;25.20;93.60;;;;;;9184205;19;20539;-72
2022/07/13 12:27:34;;;;;;;4.95;2.50;;;25.20;93.70;;;;;;9187167;19;20067;-72
2022/07/13 12:30:59;;;;;;;6.50;3.45;;;25.20;93.80;;;;;;9188215;19;20026;-73
2022/07/13 12:34:03;;;;;;;7.53;3.47;;;25.40;94.80;;;;;;9189460;19;20089;-73
2022/07/13 12:37:07;;;;;;;5.25;3.92;;;25.40;94.50;;;;;;9188744;19;20025;-73
2022/07/13 12:40:41;;;;;;;5.43;3.05;;;25.40;95.50;;;;;;9181824;19;20021;-73
2022/07/13 12:43:45;;;;;;;7.03;3.80;;;25.50;95.70;;;;;;9187768;19;20018;-73
2022/07/13 12:46:54;;;;;;;8.35;3.03;;;25.30;96.00;;;;;;9181935;19;20011;-73
2022/07/13 12:49:58;;;;;;;4.82;2.67;;;25.50;95.50;;;;;;9184297;19;20103;-73
2022/07/13 12:53:04;;;;;;;4.97;3.17;;;25.50;94.80;;;;;;9183980;19;20013;-73
2022/07/13 12:56:08;;;;;;;7.75;3.60;;;25.20;95.30;;;;;;9183272;19;20021;-74
2022/07/13 12:59:12;;;;;;;5.70;3.00;;;25.50;96.70;;;;;;9182388;19;20094;-73
2022/07/13 13:02:19;;;;;;;5.50;3.30;;;25.50;96.50;;;;;;9182894;19;20018;-73
2022/07/13 13:05:25;;;;;;;5.65;2.90;;;25.70;96.00;;;;;;9086774;19;20111;-73
2022/07/13 13:08:29;;;;;;;5.72;2.70;;;25.70;95.80;;;;;;9185547;19;20374;-75
2022/07/13 13:11:33;;;;;;;5.28;3.03;;;25.70;96.20;;;;;;9184502;19;20091;-74
2022/07/13 13:14:37;;;;;;;5.70;3.20;;;28.20;97.40;;;;;;9181980;19;20017;-74
2022/07/13 13:17:43;;;;;;;5.95;2.80;;;26.00;97.00;;;;;;9183953;19;20010;-72
2022/07/13 13:20:47;;;;;;;;;;;26.40;96.90;;;;;;9181679;19;20022;-73
2022/07/13 13:23:51;;;;;;;6.45;3.08;;;26.20;96.60;;;;;;9183309;19;19923;-74
2022/07/13 13:26:55;;;;;;;6.53;2.75;;;26.10;97.10;;;;;;9186168;19;20025;-74
2022/07/13 13:33:20;;;;;;;7.07;2.70;;;26.70;96.70;;;;;;9185238;19;20014;-73
2022/07/13 13:36:23;;;;;;;8.35;3.08;;;26.70;96.10;;;;;;9182998;19;20022;-74
2022/07/13 13:39:27;;;;;;;7.57;3.00;;;26.60;95.30;;;;;;9185169;19;20022;-74
2022/07/13 13:42:32;;;;;;;6.80;2.80;;;26.40;95.70;;;;;;9184809;19;20086;-74
2022/07/13 13:45:36;;;;;;;6.47;2.88;;;26.60;96.50;;;;;;9186497;19;20021;-74
2022/07/13 13:48:43;;;;;;;3.90;2.60;;;26.50;96.20;;;;;;9182737;19;20022;-74
2022/07/13 13:51:46;;;;;;;;;;;26.60;95.80;;;;;;9184921;19;20012;-73
2022/07/13 13:54:51;;;;;;;8.80;3.47;;;26.50;95.40;;;;;;9184540;19;19944;-71
2022/07/13 13:57:55;;;;;;;6.78;2.78;;;25.90;95.60;;;;;;9181056;19;20348;-74
2022/07/13 14:00:59;;;;;;;6.57;2.78;;;26.30;96.30;;;;;;9184317;19;20037;-71
2022/07/13 14:04:07;;;;;;;7.15;2.75;;;26.50;96.10;;;;;;9185423;19;20034;-72
2022/07/13 14:07:11;;;;;;;5.65;2.92;;;26.40;95.70;;;;;;9181074;19;20018;-74
2022/07/13 14:10:15;;;;;;;10.50;3.55;;;26.40;95.50;;;;;;9180821;19;20011;-72
2022/07/13 14:13:19;;;;;;;5.30;2.67;;;26.10;95.40;;;;;;9179691;19;20018;-74
2022/07/13 14:16:23;;;;;;;7.20;2.70;;;26.10;95.80;;;;;;9182354;19;20026;-72
2022/07/13 14:19:30;;;;;;;5.18;2.80;;;26.30;96.30;;;;;;9179945;19;20011;-73
2022/07/13 14:22:34;;;;;;;11.30;3.08;;;26.60;95.60;;;;;;9181878;19;20039;-72
2022/07/13 14:25:38;;;;;;;9.85;3.70;;;26.80;95.90;;;;;;9178629;19;20090;-72
2022/07/13 14:28:42;;;;;;;9.05;3.45;;;26.10;94.90;;;;;;9178948;19;20483;-71
2022/07/13 14:31:47;;;;;;;8.45;3.00;;;25.80;95.70;;;;;;9180351;19;20014;-71
2022/07/13 14:34:54;;;;;;;9.15;3.70;;;26.00;95.70;;;;;;9183860;19;20351;-74
2022/07/13 14:37:58;;;;;;;6.97;2.35;;;25.70;95.40;;;;;;9182396;19;20044;-74
2022/07/13 14:41:02;;;;;;;6.82;2.70;;;25.50;94.80;;;;;;9180930;19;20026;-72
2022/07/13 14:44:07;;;;;;;8.82;2.70;;;25.70;95.00;;;;;;9181175;19;20555;-72
2022/07/13 14:47:11;;;;;;;6.25;2.72;;;25.40;94.80;;;;;;9181818;19;20033;-73
2022/07/13 14:50:18;;;;;;;5.70;3.17;;;25.20;95.00;;;;;;9180065;19;20021;-71
2022/07/13 14:53:23;;;;;;;7.10;2.70;;;25.30;95.80;;;;;;9179743;19;20014;-72
2022/07/13 14:56:28;;;;;;;5.75;2.60;;;25.60;95.00;;;;;;9180083;19;20047;-70
2022/07/13 14:59:33;;;;;;;7.05;2.65;;;26.30;95.30;;;;;;9177665;19;20020;-72
2022/07/13 15:02:38;;;;;;;7.17;3.30;;;26.70;94.30;;;;;;9175982;19;20038;-74
2022/07/13 15:05:45;;;;;;;8.82;3.20;;;26.90;92.40;;;;;;9180686;19;20271;-71
2022/07/13 15:08:50;;;;;;;6.32;2.60;;;27.00;93.20;;;;;;9178012;19;20019;-71
2022/07/13 15:11:54;;;;;;;5.75;2.30;;;26.80;92.50;;;;;;9175843;19;20018;-71
2022/07/13 15:14:58;;;;;;;5.40;2.25;;;27.00;91.80;;;;;;9178926;19;20078;-72
2022/07/13 15:18:03;;;;;;;10.63;4.15;;;27.00;92.50;;;;;;9175863;19;20588;-71
2022/07/13 15:21:10;;;;;;;13.73;6.00;;;26.80;91.30;;;;;;9177116;19;20074;-72
2022/07/13 15:24:14;;;;;;;6.35;2.35;;;26.60;91.30;;;;;;9179765;19;20376;-70
2022/07/13 15:27:18;;;;;;;5.40;2.22;;;26.90;92.50;;;;;;9177803;19;20018;-71
2022/07/13 15:30:22;;;;;;;6.95;2.60;;;27.30;91.80;;;;;;9187353;19;20096;-69
2022/07/13 15:33:26;;;;;;;7.72;3.10;;;27.30;90.80;;;;;;9185204;19;20021;-70
2022/07/13 15:36:33;;;;;;;7.25;2.53;;;27.40;90.10;;;;;;9187621;19;20070;-70
2022/07/13 15:39:37;;;;;;;6.05;2.10;;;27.60;89.90;;;;;;9187564;19;20024;-71
2022/07/13 15:42:41;;;;;;;15.07;5.30;;;27.60;90.20;;;;;;9185698;19;20011;-72
2022/07/13 15:45:44;;;;;;;7.25;2.17;;;27.40;87.70;;;;;;9186111;19;20022;-71
2022/07/13 15:48:48;;;;;;;8.75;2.55;;;27.10;88.60;;;;;;9184089;19;20014;-71
2022/07/13 15:51:55;;;;;;;6.70;2.70;;;26.80;88.80;;;;;;9187224;19;20013;-76
2022/07/13 15:54:59;;;;;;;9.52;2.97;;;26.80;90.10;;;;;;9186138;19;20019;-74
2022/07/13 15:58:03;;;;;;;10.10;3.25;;;26.60;85.30;;;;;;9186876;19;20102;-72
2022/07/13 16:01:07;;;;;;;8.45;2.75;;;26.30;86.80;;;;;;9185614;19;20011;-72
2022/07/13 16:04:11;;;;;;;9.90;2.40;;;26.60;87.30;;;;;;9188173;19;20018;-72
2022/07/13 16:07:18;;;;;;;8.40;2.80;;;26.80;85.60;;;;;;9185093;19;20014;-73
2022/07/13 16:10:21;;;;;;;;;;;26.90;84.70;;;;;;9185903;19;20006;-73
2022/07/13 16:13:25;;;;;;;14.43;4.20;;;27.10;85.60;;;;;;9185285;19;19919;-72
2022/07/13 16:16:29;;;;;;;13.85;3.42;;;27.40;83.30;;;;;;9189950;19;20047;-72